sensor_id;sensor_type;location;lat;lon;timestamp;P1;durP1;ratioP1;P2;durP2;ratioP2
13733;SDS011;43298;52.560;13.508;2022-11-12T00:00:49;8.93;;;8.40;;
13733;SDS011;43298;52.560;13.508;2022-11-12T00:03:15;8.77;;;8.38;;
13733;SDS011;43298;52.560;13.508;2022-11-12T00:05:41;9.52;;;9.02;;
13733;SDS011;43298;52.560;13.508;2022-11-12T00:08:09;8.73;;;8.32;;
13733;SDS011;43298;52.560;13.508;2022-11-12T00:10:35;8.30;;;7.90;;
13733;SDS011;43298;52.560;13.508;2022-11-12T00:13:01;8.60;;;8.20;;
13733;SDS011;43298;52.560;13.508;2022-11-12T00:15:26;8.95;;;8.30;;
13733;SDS011;43298;52.560;13.508;2022-11-12T00:17:52;9.25;;;8.75;;
13733;SDS011;43298;52.560;13.508;2022-11-12T00:20:19;9.15;;;8.65;;
13733;SDS011;43298;52.560;13.508;2022-11-12T00:22:44;9.38;;;8.90;;
13733;SDS011;43298;52.560;13.508;2022-11-12T00:25:10;8.40;;;7.90;;
13733;SDS011;43298;52.560;13.508;2022-11-12T00:27:36;13.18;;;8.90;;
13733;SDS011;43298;52.560;13.508;2022-11-12T00:30:02;8.65;;;8.25;;
13733;SDS011;43298;52.560;13.508;2022-11-12T00:32:29;8.88;;;8.27;;
13733;SDS011;43298;52.560;13.508;2022-11-12T00:34:55;8.68;;;8.27;;
13733;SDS011;43298;52.560;13.508;2022-11-12T00:37:21;8.73;;;8.32;;
13733;SDS011;43298;52.560;13.508;2022-11-12T00:39:47;8.10;;;7.70;;
13733;SDS011;43298;52.560;13.508;2022-11-12T00:42:13;8.23;;;7.88;;
13733;SDS011;43298;52.560;13.508;2022-11-12T00:44:39;8.95;;;8.55;;
13733;SDS011;43298;52.560;13.508;2022-11-12T00:47:05;8.20;;;7.82;;
13733;SDS011;43298;52.560;13.508;2022-11-12T00:49:31;9.00;;;8.57;;
13733;SDS011;43298;52.560;13.508;2022-11-12T00:51:57;8.70;;;8.30;;
13733;SDS011;43298;52.560;13.508;2022-11-12T00:54:22;8.43;;;8.02;;
13733;SDS011;43298;52.560;13.508;2022-11-12T00:56:48;9.63;;;9.13;;
13733;SDS011;43298;52.560;13.508;2022-11-12T00:59:14;9.30;;;8.75;;
13733;SDS011;43298;52.560;13.508;2022-11-12T01:01:40;9.98;;;9.38;;
13733;SDS011;43298;52.560;13.508;2022-11-12T01:04:06;8.80;;;8.40;;
13733;SDS011;43298;52.560;13.508;2022-11-12T01:06:32;10.00;;;9.40;;
13733;SDS011;43298;52.560;13.508;2022-11-12T01:08:58;9.00;;;8.60;;
13733;SDS011;43298;52.560;13.508;2022-11-12T01:11:25;9.07;;;8.68;;
13733;SDS011;43298;52.560;13.508;2022-11-12T01:14:06;9.43;;;9.00;;
13733;SDS011;43298;52.560;13.508;2022-11-12T01:16:35;8.88;;;8.48;;
13733;SDS011;43298;52.560;13.508;2022-11-12T01:19:04;9.45;;;9.05;;
13733;SDS011;43298;52.560;13.508;2022-11-12T01:21:35;9.00;;;8.60;;
13733;SDS011;43298;52.560;13.508;2022-11-12T01:24:05;9.85;;;9.45;;
13733;SDS011;43298;52.560;13.508;2022-11-12T01:26:32;10.20;;;9.60;;
13733;SDS011;43298;52.560;13.508;2022-11-12T01:28:59;9.40;;;8.90;;
13733;SDS011;43298;52.560;13.508;2022-11-12T01:31:26;8.38;;;8.07;;
13733;SDS011;43298;52.560;13.508;2022-11-12T01:34:06;8.90;;;8.50;;
13733;SDS011;43298;52.560;13.508;2022-11-12T01:36:34;9.30;;;8.90;;
13733;SDS011;43298;52.560;13.508;2022-11-12T01:39:03;8.98;;;8.57;;
13733;SDS011;43298;52.560;13.508;2022-11-12T01:41:32;8.65;;;8.27;;
13733;SDS011;43298;52.560;13.508;2022-11-12T01:46:47;9.30;;;8.90;;
13733;SDS011;43298;52.560;13.508;2022-11-12T01:52:36;8.60;;;8.20;;
13733;SDS011;43298;52.560;13.508;2022-11-12T01:55:21;9.05;;;8.65;;
13733;SDS011;43298;52.560;13.508;2022-11-12T01:57:53;8.80;;;8.38;;
13733;SDS011;43298;52.560;13.508;2022-11-12T02:00:29;8.63;;;8.23;;
13733;SDS011;43298;52.560;13.508;2022-11-12T02:02:56;8.25;;;7.85;;
13733;SDS011;43298;52.560;13.508;2022-11-12T02:05:26;8.80;;;8.00;;
13733;SDS011;43298;52.560;13.508;2022-11-12T02:07:55;8.05;;;7.65;;
13733;SDS011;43298;52.560;13.508;2022-11-12T02:10:23;7.90;;;7.50;;
13733;SDS011;43298;52.560;13.508;2022-11-12T02:12:50;8.73;;;8.32;;
13733;SDS011;43298;52.560;13.508;2022-11-12T02:15:37;8.73;;;8.27;;
13733;SDS011;43298;52.560;13.508;2022-11-12T02:18:04;7.05;;;6.75;;
13733;SDS011;43298;52.560;13.508;2022-11-12T02:20:32;9.00;;;8.50;;
13733;SDS011;43298;52.560;13.508;2022-11-12T02:23:00;8.18;;;7.78;;
13733;SDS011;43298;52.560;13.508;2022-11-12T02:25:25;8.27;;;7.88;;
13733;SDS011;43298;52.560;13.508;2022-11-12T02:27:52;7.82;;;7.43;;
13733;SDS011;43298;52.560;13.508;2022-11-12T02:30:31;7.60;;;7.30;;
13733;SDS011;43298;52.560;13.508;2022-11-12T02:32:59;8.57;;;8.10;;
13733;SDS011;43298;52.560;13.508;2022-11-12T02:35:25;8.05;;;7.63;;
13733;SDS011;43298;52.560;13.508;2022-11-12T02:37:51;8.05;;;7.65;;
13733;SDS011;43298;52.560;13.508;2022-11-12T02:40:17;8.23;;;7.82;;
13733;SDS011;43298;52.560;13.508;2022-11-12T02:42:42;7.43;;;7.13;;
13733;SDS011;43298;52.560;13.508;2022-11-12T02:45:08;7.78;;;7.47;;
13733;SDS011;43298;52.560;13.508;2022-11-12T02:47:35;8.98;;;8.57;;
13733;SDS011;43298;52.560;13.508;2022-11-12T02:50:01;8.48;;;8.10;;
13733;SDS011;43298;52.560;13.508;2022-11-12T02:52:28;8.25;;;7.85;;
13733;SDS011;43298;52.560;13.508;2022-11-12T02:54:53;8.23;;;7.85;;
13733;SDS011;43298;52.560;13.508;2022-11-12T02:57:19;8.15;;;7.78;;
13733;SDS011;43298;52.560;13.508;2022-11-12T02:59:45;7.25;;;6.95;;
13733;SDS011;43298;52.560;13.508;2022-11-12T03:02:10;7.75;;;7.45;;
13733;SDS011;43298;52.560;13.508;2022-11-12T03:04:36;8.35;;;7.93;;
13733;SDS011;43298;52.560;13.508;2022-11-12T03:07:02;7.20;;;6.90;;
13733;SDS011;43298;52.560;13.508;2022-11-12T03:09:28;8.13;;;7.75;;
13733;SDS011;43298;52.560;13.508;2022-11-12T03:11:54;9.25;;;8.75;;
13733;SDS011;43298;52.560;13.508;2022-11-12T03:14:19;8.27;;;7.72;;
13733;SDS011;43298;52.560;13.508;2022-11-12T03:16:45;8.23;;;7.90;;
13733;SDS011;43298;52.560;13.508;2022-11-12T03:19:11;8.88;;;8.48;;
13733;SDS011;43298;52.560;13.508;2022-11-12T03:21:37;8.75;;;8.25;;
13733;SDS011;43298;52.560;13.508;2022-11-12T03:24:03;8.30;;;7.90;;
13733;SDS011;43298;52.560;13.508;2022-11-12T03:26:29;9.35;;;8.57;;
13733;SDS011;43298;52.560;13.508;2022-11-12T03:28:55;7.97;;;7.57;;
13733;SDS011;43298;52.560;13.508;2022-11-12T03:31:20;7.63;;;7.32;;
13733;SDS011;43298;52.560;13.508;2022-11-12T03:33:46;8.88;;;8.05;;
13733;SDS011;43298;52.560;13.508;2022-11-12T03:36:12;7.95;;;7.63;;
13733;SDS011;43298;52.560;13.508;2022-11-12T03:38:38;8.40;;;8.00;;
13733;SDS011;43298;52.560;13.508;2022-11-12T03:41:04;9.07;;;8.45;;
13733;SDS011;43298;52.560;13.508;2022-11-12T03:43:29;8.55;;;8.15;;
13733;SDS011;43298;52.560;13.508;2022-11-12T03:45:55;8.07;;;7.78;;
13733;SDS011;43298;52.560;13.508;2022-11-12T03:48:21;8.70;;;8.30;;
13733;SDS011;43298;52.560;13.508;2022-11-12T03:50:47;7.85;;;7.55;;
13733;SDS011;43298;52.560;13.508;2022-11-12T03:53:12;9.18;;;8.77;;
13733;SDS011;43298;52.560;13.508;2022-11-12T03:55:39;9.00;;;8.60;;
13733;SDS011;43298;52.560;13.508;2022-11-12T03:58:05;8.77;;;8.38;;
13733;SDS011;43298;52.560;13.508;2022-11-12T04:00:31;8.68;;;8.30;;
13733;SDS011;43298;52.560;13.508;2022-11-12T04:02:57;8.75;;;8.35;;
13733;SDS011;43298;52.560;13.508;2022-11-12T04:05:23;9.50;;;9.10;;
13733;SDS011;43298;52.560;13.508;2022-11-12T04:08:11;9.70;;;9.20;;
13733;SDS011;43298;52.560;13.508;2022-11-12T04:10:59;9.35;;;8.85;;
13733;SDS011;43298;52.560;13.508;2022-11-12T04:13:37;10.00;;;9.50;;
13733;SDS011;43298;52.560;13.508;2022-11-12T04:16:07;11.30;;;9.55;;
13733;SDS011;43298;52.560;13.508;2022-11-12T04:19:03;9.40;;;9.00;;
13733;SDS011;43298;52.560;13.508;2022-11-12T04:21:50;8.70;;;8.35;;
13733;SDS011;43298;52.560;13.508;2022-11-12T04:24:25;10.23;;;9.73;;
13733;SDS011;43298;52.560;13.508;2022-11-12T04:27:34;8.95;;;8.55;;
13733;SDS011;43298;52.560;13.508;2022-11-12T04:29:59;9.45;;;9.05;;
13733;SDS011;43298;52.560;13.508;2022-11-12T04:32:47;9.68;;;9.23;;
13733;SDS011;43298;52.560;13.508;2022-11-12T04:35:18;9.55;;;9.15;;
13733;SDS011;43298;52.560;13.508;2022-11-12T04:37:46;9.52;;;9.13;;
13733;SDS011;43298;52.560;13.508;2022-11-12T04:43:02;9.60;;;9.20;;
13733;SDS011;43298;52.560;13.508;2022-11-12T04:45:49;8.88;;;8.48;;
13733;SDS011;43298;52.560;13.508;2022-11-12T04:48:17;9.35;;;8.95;;
13733;SDS011;43298;52.560;13.508;2022-11-12T04:50:46;9.55;;;8.95;;
13733;SDS011;43298;52.560;13.508;2022-11-12T04:53:17;9.55;;;9.15;;
13733;SDS011;43298;52.560;13.508;2022-11-12T04:55:43;9.30;;;8.90;;
13733;SDS011;43298;52.560;13.508;2022-11-12T04:58:09;9.07;;;8.68;;
13733;SDS011;43298;52.560;13.508;2022-11-12T05:00:35;8.40;;;8.00;;
13733;SDS011;43298;52.560;13.508;2022-11-12T05:03:00;8.52;;;8.18;;
13733;SDS011;43298;52.560;13.508;2022-11-12T05:05:26;9.82;;;9.32;;
13733;SDS011;43298;52.560;13.508;2022-11-12T05:07:52;8.85;;;8.45;;
13733;SDS011;43298;52.560;13.508;2022-11-12T05:10:18;9.13;;;8.73;;
13733;SDS011;43298;52.560;13.508;2022-11-12T05:12:43;9.77;;;9.27;;
13733;SDS011;43298;52.560;13.508;2022-11-12T05:15:10;9.18;;;8.77;;
13733;SDS011;43298;52.560;13.508;2022-11-12T05:17:38;8.00;;;7.70;;
13733;SDS011;43298;52.560;13.508;2022-11-12T05:20:08;8.85;;;8.45;;
13733;SDS011;43298;52.560;13.508;2022-11-12T05:22:35;8.23;;;7.93;;
13733;SDS011;43298;52.560;13.508;2022-11-12T05:25:01;9.50;;;9.00;;
13733;SDS011;43298;52.560;13.508;2022-11-12T05:27:27;9.50;;;9.10;;
13733;SDS011;43298;52.560;13.508;2022-11-12T05:29:53;8.77;;;8.43;;
13733;SDS011;43298;52.560;13.508;2022-11-12T05:32:19;8.85;;;8.45;;
13733;SDS011;43298;52.560;13.508;2022-11-12T05:34:44;9.48;;;9.07;;
13733;SDS011;43298;52.560;13.508;2022-11-12T05:37:11;9.57;;;9.07;;
13733;SDS011;43298;52.560;13.508;2022-11-12T05:39:37;9.00;;;8.60;;
13733;SDS011;43298;52.560;13.508;2022-11-12T05:42:04;9.48;;;8.93;;
13733;SDS011;43298;52.560;13.508;2022-11-12T05:44:30;9.25;;;8.85;;
13733;SDS011;43298;52.560;13.508;2022-11-12T05:46:56;9.82;;;9.40;;
13733;SDS011;43298;52.560;13.508;2022-11-12T05:49:22;9.70;;;9.30;;
13733;SDS011;43298;52.560;13.508;2022-11-12T05:51:48;9.18;;;8.77;;
13733;SDS011;43298;52.560;13.508;2022-11-12T05:54:14;8.20;;;7.90;;
13733;SDS011;43298;52.560;13.508;2022-11-12T05:56:40;9.23;;;8.82;;
13733;SDS011;43298;52.560;13.508;2022-11-12T05:59:07;9.00;;;8.60;;
13733;SDS011;43298;52.560;13.508;2022-11-12T06:01:35;9.05;;;8.65;;
13733;SDS011;43298;52.560;13.508;2022-11-12T06:04:08;8.70;;;8.30;;
13733;SDS011;43298;52.560;13.508;2022-11-12T06:06:35;8.93;;;8.52;;
13733;SDS011;43298;52.560;13.508;2022-11-12T06:09:02;8.18;;;7.88;;
13733;SDS011;43298;52.560;13.508;2022-11-12T06:11:28;8.43;;;8.02;;
13733;SDS011;43298;52.560;13.508;2022-11-12T06:13:54;8.65;;;8.25;;
13733;SDS011;43298;52.560;13.508;2022-11-12T06:16:20;9.20;;;8.80;;
13733;SDS011;43298;52.560;13.508;2022-11-12T06:18:46;8.45;;;8.13;;
13733;SDS011;43298;52.560;13.508;2022-11-12T06:21:11;8.85;;;8.45;;
13733;SDS011;43298;52.560;13.508;2022-11-12T06:23:43;9.13;;;8.73;;
13733;SDS011;43298;52.560;13.508;2022-11-12T06:26:18;9.60;;;9.20;;
13733;SDS011;43298;52.560;13.508;2022-11-12T06:28:44;10.27;;;9.77;;
13733;SDS011;43298;52.560;13.508;2022-11-12T06:31:11;9.52;;;9.00;;
13733;SDS011;43298;52.560;13.508;2022-11-12T06:33:38;9.57;;;9.07;;
13733;SDS011;43298;52.560;13.508;2022-11-12T06:36:04;9.15;;;8.73;;
13733;SDS011;43298;52.560;13.508;2022-11-12T06:38:32;8.70;;;8.35;;
13733;SDS011;43298;52.560;13.508;2022-11-12T06:41:01;9.20;;;8.80;;
13733;SDS011;43298;52.560;13.508;2022-11-12T06:43:28;8.93;;;8.50;;
13733;SDS011;43298;52.560;13.508;2022-11-12T06:45:59;8.38;;;8.07;;
13733;SDS011;43298;52.560;13.508;2022-11-12T06:48:27;9.45;;;9.05;;
13733;SDS011;43298;52.560;13.508;2022-11-12T06:50:54;9.02;;;8.63;;
13733;SDS011;43298;52.560;13.508;2022-11-12T06:53:21;8.85;;;8.45;;
13733;SDS011;43298;52.560;13.508;2022-11-12T06:55:48;8.65;;;8.27;;
13733;SDS011;43298;52.560;13.508;2022-11-12T06:58:14;8.20;;;7.90;;
13733;SDS011;43298;52.560;13.508;2022-11-12T07:00:40;8.45;;;8.05;;
13733;SDS011;43298;52.560;13.508;2022-11-12T07:03:06;8.68;;;8.27;;
13733;SDS011;43298;52.560;13.508;2022-11-12T07:05:37;9.38;;;8.88;;
13733;SDS011;43298;52.560;13.508;2022-11-12T07:08:03;9.45;;;8.98;;
13733;SDS011;43298;52.560;13.508;2022-11-12T07:10:30;9.70;;;9.20;;
13733;SDS011;43298;52.560;13.508;2022-11-12T07:12:56;9.75;;;9.15;;
13733;SDS011;43298;52.560;13.508;2022-11-12T07:15:23;9.82;;;9.15;;
13733;SDS011;43298;52.560;13.508;2022-11-12T07:17:48;10.18;;;9.50;;
13733;SDS011;43298;52.560;13.508;2022-11-12T07:20:14;9.48;;;8.88;;
13733;SDS011;43298;52.560;13.508;2022-11-12T07:22:40;9.88;;;9.38;;
13733;SDS011;43298;52.560;13.508;2022-11-12T07:25:06;10.02;;;9.43;;
13733;SDS011;43298;52.560;13.508;2022-11-12T07:27:32;9.63;;;9.05;;
13733;SDS011;43298;52.560;13.508;2022-11-12T07:29:58;10.30;;;9.40;;
13733;SDS011;43298;52.560;13.508;2022-11-12T07:32:24;9.20;;;8.70;;
13733;SDS011;43298;52.560;13.508;2022-11-12T07:34:50;8.73;;;8.23;;
13733;SDS011;43298;52.560;13.508;2022-11-12T07:37:15;9.60;;;9.10;;
13733;SDS011;43298;52.560;13.508;2022-11-12T07:39:41;9.63;;;9.07;;
13733;SDS011;43298;52.560;13.508;2022-11-12T07:42:07;10.27;;;9.77;;
13733;SDS011;43298;52.560;13.508;2022-11-12T07:44:33;11.13;;;10.23;;
13733;SDS011;43298;52.560;13.508;2022-11-12T07:46:59;11.48;;;10.77;;
13733;SDS011;43298;52.560;13.508;2022-11-12T07:49:24;10.77;;;10.15;;
13733;SDS011;43298;52.560;13.508;2022-11-12T07:51:50;11.70;;;11.02;;
13733;SDS011;43298;52.560;13.508;2022-11-12T07:54:16;10.20;;;9.65;;
13733;SDS011;43298;52.560;13.508;2022-11-12T07:56:42;9.80;;;9.23;;
13733;SDS011;43298;52.560;13.508;2022-11-12T07:59:07;10.57;;;10.02;;
13733;SDS011;43298;52.560;13.508;2022-11-12T08:01:34;11.80;;;10.75;;
13733;SDS011;43298;52.560;13.508;2022-11-12T08:04:03;11.68;;;11.02;;
13733;SDS011;43298;52.560;13.508;2022-11-12T08:06:33;10.63;;;10.07;;
13733;SDS011;43298;52.560;13.508;2022-11-12T08:09:01;11.82;;;10.85;;
13733;SDS011;43298;52.560;13.508;2022-11-12T08:11:30;8.60;;;8.15;;
13733;SDS011;43298;52.560;13.508;2022-11-12T08:13:56;9.48;;;8.82;;
13733;SDS011;43298;52.560;13.508;2022-11-12T08:16:22;10.63;;;9.75;;
13733;SDS011;43298;52.560;13.508;2022-11-12T08:18:48;11.55;;;10.25;;
13733;SDS011;43298;52.560;13.508;2022-11-12T08:21:15;9.50;;;8.95;;
13733;SDS011;43298;52.560;13.508;2022-11-12T08:23:42;9.85;;;9.25;;
13733;SDS011;43298;52.560;13.508;2022-11-12T08:26:13;9.60;;;9.00;;
13733;SDS011;43298;52.560;13.508;2022-11-12T08:28:41;10.32;;;9.73;;
13733;SDS011;43298;52.560;13.508;2022-11-12T08:31:09;11.70;;;11.00;;
13733;SDS011;43298;52.560;13.508;2022-11-12T08:33:38;11.88;;;11.23;;
13733;SDS011;43298;52.560;13.508;2022-11-12T08:36:06;11.50;;;10.90;;
13733;SDS011;43298;52.560;13.508;2022-11-12T08:38:35;13.57;;;12.60;;
13733;SDS011;43298;52.560;13.508;2022-11-12T08:41:02;13.32;;;12.52;;
13733;SDS011;43298;52.560;13.508;2022-11-12T08:43:29;11.73;;;10.93;;
13733;SDS011;43298;52.560;13.508;2022-11-12T08:45:59;10.48;;;9.68;;
13733;SDS011;43298;52.560;13.508;2022-11-12T08:48:26;11.00;;;10.40;;
13733;SDS011;43298;52.560;13.508;2022-11-12T08:50:54;10.90;;;10.20;;
13733;SDS011;43298;52.560;13.508;2022-11-12T08:53:20;10.27;;;9.77;;
13733;SDS011;43298;52.560;13.508;2022-11-12T08:55:48;10.32;;;9.82;;
13733;SDS011;43298;52.560;13.508;2022-11-12T08:58:18;12.10;;;11.40;;
13733;SDS011;43298;52.560;13.508;2022-11-12T09:00:43;12.45;;;11.85;;
13733;SDS011;43298;52.560;13.508;2022-11-12T09:03:14;12.60;;;11.90;;
13733;SDS011;43298;52.560;13.508;2022-11-12T09:05:48;11.05;;;10.50;;
13733;SDS011;43298;52.560;13.508;2022-11-12T09:08:16;19.02;;;17.67;;
13733;SDS011;43298;52.560;13.508;2022-11-12T09:10:46;17.30;;;16.30;;
13733;SDS011;43298;52.560;13.508;2022-11-12T09:13:12;15.90;;;14.90;;
13733;SDS011;43298;52.560;13.508;2022-11-12T09:15:38;13.20;;;12.25;;
13733;SDS011;43298;52.560;13.508;2022-11-12T09:18:06;13.95;;;13.23;;
13733;SDS011;43298;52.560;13.508;2022-11-12T09:20:36;11.85;;;11.15;;
13733;SDS011;43298;52.560;13.508;2022-11-12T09:23:06;11.23;;;10.65;;
13733;SDS011;43298;52.560;13.508;2022-11-12T09:25:38;10.23;;;9.50;;
13733;SDS011;43298;52.560;13.508;2022-11-12T09:28:15;8.70;;;8.23;;
13733;SDS011;43298;52.560;13.508;2022-11-12T09:30:46;9.45;;;8.93;;
13733;SDS011;43298;52.560;13.508;2022-11-12T09:33:15;9.10;;;8.40;;
13733;SDS011;43298;52.560;13.508;2022-11-12T09:35:43;8.25;;;7.85;;
13733;SDS011;43298;52.560;13.508;2022-11-12T09:38:10;9.77;;;9.13;;
13733;SDS011;43298;52.560;13.508;2022-11-12T09:40:48;8.10;;;7.70;;
13733;SDS011;43298;52.560;13.508;2022-11-12T09:49:37;7.18;;;6.88;;
13733;SDS011;43298;52.560;13.508;2022-11-12T09:52:39;7.78;;;7.38;;
13733;SDS011;43298;52.560;13.508;2022-11-12T09:55:15;7.88;;;7.38;;
13733;SDS011;43298;52.560;13.508;2022-11-12T09:58:11;8.57;;;8.07;;
13733;SDS011;43298;52.560;13.508;2022-11-12T10:00:40;8.68;;;7.90;;
13733;SDS011;43298;52.560;13.508;2022-11-12T10:03:51;7.20;;;6.80;;
13733;SDS011;43298;52.560;13.508;2022-11-12T10:06:35;9.07;;;8.30;;
13733;SDS011;43298;52.560;13.508;2022-11-12T10:09:34;7.55;;;7.05;;
13733;SDS011;43298;52.560;13.508;2022-11-12T10:15:29;8.20;;;7.80;;
13733;SDS011;43298;52.560;13.508;2022-11-12T10:21:35;10.02;;;9.50;;
13733;SDS011;43298;52.560;13.508;2022-11-12T10:24:34;7.13;;;6.78;;
13733;SDS011;43298;52.560;13.508;2022-11-12T10:27:38;8.57;;;8.18;;
13733;SDS011;43298;52.560;13.508;2022-11-12T10:30:04;7.85;;;7.25;;
13733;SDS011;43298;52.560;13.508;2022-11-12T10:32:40;9.32;;;8.93;;
13733;SDS011;43298;52.560;13.508;2022-11-12T10:35:13;7.05;;;6.75;;
13733;SDS011;43298;52.560;13.508;2022-11-12T10:37:48;7.55;;;7.25;;
13733;SDS011;43298;52.560;13.508;2022-11-12T10:40:27;8.57;;;8.15;;
13733;SDS011;43298;52.560;13.508;2022-11-12T10:43:00;9.93;;;9.43;;
13733;SDS011;43298;52.560;13.508;2022-11-12T10:45:44;9.63;;;9.13;;
13733;SDS011;43298;52.560;13.508;2022-11-12T10:48:20;12.90;;;11.77;;
13733;SDS011;43298;52.560;13.508;2022-11-12T10:50:49;10.20;;;9.70;;
13733;SDS011;43298;52.560;13.508;2022-11-12T10:53:27;13.35;;;12.73;;
13733;SDS011;43298;52.560;13.508;2022-11-12T10:56:00;12.48;;;11.82;;
13733;SDS011;43298;52.560;13.508;2022-11-12T10:58:28;10.98;;;10.48;;
13733;SDS011;43298;52.560;13.508;2022-11-12T11:00:59;15.13;;;14.40;;
13733;SDS011;43298;52.560;13.508;2022-11-12T11:08:44;8.80;;;8.18;;
13733;SDS011;43298;52.560;13.508;2022-11-12T11:13:42;8.38;;;7.97;;
13733;SDS011;43298;52.560;13.508;2022-11-12T11:16:11;9.82;;;9.30;;
13733;SDS011;43298;52.560;13.508;2022-11-12T11:18:47;8.90;;;8.45;;
13733;SDS011;43298;52.560;13.508;2022-11-12T11:47:06;8.07;;;7.68;;
13733;SDS011;43298;52.560;13.508;2022-11-12T11:50:14;7.93;;;7.43;;
13733;SDS011;43298;52.560;13.508;2022-11-12T11:52:45;8.32;;;7.82;;
13733;SDS011;43298;52.560;13.508;2022-11-12T11:55:26;7.82;;;7.43;;
13733;SDS011;43298;52.560;13.508;2022-11-12T12:06:55;7.85;;;7.55;;
13733;SDS011;43298;52.560;13.508;2022-11-12T12:15:23;8.25;;;7.85;;
13733;SDS011;43298;52.560;13.508;2022-11-12T12:17:55;12.27;;;11.55;;
13733;SDS011;43298;52.560;13.508;2022-11-12T12:20:40;14.30;;;13.65;;
13733;SDS011;43298;52.560;13.508;2022-11-12T12:26:10;11.45;;;10.98;;
13733;SDS011;43298;52.560;13.508;2022-11-12T12:31:50;10.18;;;9.57;;
13733;SDS011;43298;52.560;13.508;2022-11-12T12:34:38;9.70;;;9.20;;
13733;SDS011;43298;52.560;13.508;2022-11-12T12:37:12;9.90;;;9.40;;
13733;SDS011;43298;52.560;13.508;2022-11-12T12:39:43;8.55;;;8.18;;
13733;SDS011;43298;52.560;13.508;2022-11-12T12:42:25;8.02;;;7.70;;
13733;SDS011;43298;52.560;13.508;2022-11-12T12:48:05;11.30;;;10.60;;
13733;SDS011;43298;52.560;13.508;2022-11-12T12:50:38;12.65;;;11.80;;
13733;SDS011;43298;52.560;13.508;2022-11-12T12:53:16;13.07;;;12.48;;
13733;SDS011;43298;52.560;13.508;2022-11-12T12:55:57;14.77;;;14.07;;
13733;SDS011;43298;52.560;13.508;2022-11-12T12:58:46;12.88;;;12.35;;
13733;SDS011;43298;52.560;13.508;2022-11-12T13:03:50;13.95;;;13.25;;
13733;SDS011;43298;52.560;13.508;2022-11-12T13:06:27;11.75;;;11.25;;
13733;SDS011;43298;52.560;13.508;2022-11-12T13:17:01;10.68;;;10.07;;
13733;SDS011;43298;52.560;13.508;2022-11-12T13:19:31;12.20;;;11.70;;
13733;SDS011;43298;52.560;13.508;2022-11-12T13:32:59;12.82;;;12.23;;
13733;SDS011;43298;52.560;13.508;2022-11-12T13:40:51;11.15;;;10.57;;
13733;SDS011;43298;52.560;13.508;2022-11-12T13:43:44;10.73;;;10.23;;
13733;SDS011;43298;52.560;13.508;2022-11-12T13:46:28;10.52;;;10.02;;
13733;SDS011;43298;52.560;13.508;2022-11-12T13:51:38;8.40;;;8.00;;
13733;SDS011;43298;52.560;13.508;2022-11-12T13:59:48;10.43;;;9.93;;
13733;SDS011;43298;52.560;13.508;2022-11-12T14:02:31;9.88;;;9.40;;
13733;SDS011;43298;52.560;13.508;2022-11-12T14:04:59;10.57;;;9.98;;
13733;SDS011;43298;52.560;13.508;2022-11-12T14:15:19;9.50;;;9.00;;
13733;SDS011;43298;52.560;13.508;2022-11-12T14:18:16;10.27;;;9.80;;
13733;SDS011;43298;52.560;13.508;2022-11-12T14:21:10;11.15;;;10.65;;
13733;SDS011;43298;52.560;13.508;2022-11-12T14:23:42;8.60;;;8.20;;
13733;SDS011;43298;52.560;13.508;2022-11-12T14:26:11;8.90;;;8.50;;
13733;SDS011;43298;52.560;13.508;2022-11-12T14:28:38;9.48;;;8.65;;
13733;SDS011;43298;52.560;13.508;2022-11-12T14:31:11;8.45;;;8.05;;
13733;SDS011;43298;52.560;13.508;2022-11-12T14:33:38;11.95;;;10.90;;
13733;SDS011;43298;52.560;13.508;2022-11-12T14:36:05;11.77;;;11.23;;
13733;SDS011;43298;52.560;13.508;2022-11-12T14:38:39;13.90;;;13.20;;
13733;SDS011;43298;52.560;13.508;2022-11-12T14:43:52;10.80;;;10.30;;
13733;SDS011;43298;52.560;13.508;2022-11-12T14:49:11;9.13;;;8.73;;
13733;SDS011;43298;52.560;13.508;2022-11-12T14:52:00;9.95;;;9.45;;
13733;SDS011;43298;52.560;13.508;2022-11-12T14:54:47;10.40;;;9.68;;
13733;SDS011;43298;52.560;13.508;2022-11-12T14:57:25;11.18;;;10.25;;
13733;SDS011;43298;52.560;13.508;2022-11-12T14:59:53;9.05;;;8.55;;
13733;SDS011;43298;52.560;13.508;2022-11-12T15:02:21;11.10;;;10.60;;
13733;SDS011;43298;52.560;13.508;2022-11-12T15:10:35;11.27;;;10.75;;
13733;SDS011;43298;52.560;13.508;2022-11-12T15:13:12;12.00;;;11.30;;
13733;SDS011;43298;52.560;13.508;2022-11-12T15:15:39;11.02;;;10.52;;
13733;SDS011;43298;52.560;13.508;2022-11-12T15:18:27;9.82;;;9.32;;
13733;SDS011;43298;52.560;13.508;2022-11-12T15:26:35;9.20;;;8.73;;
13733;SDS011;43298;52.560;13.508;2022-11-12T15:37:05;12.02;;;11.27;;
13733;SDS011;43298;52.560;13.508;2022-11-12T15:39:40;10.00;;;9.50;;
13733;SDS011;43298;52.560;13.508;2022-11-12T15:42:15;12.40;;;11.80;;
13733;SDS011;43298;52.560;13.508;2022-11-12T15:45:08;13.30;;;12.70;;
13733;SDS011;43298;52.560;13.508;2022-11-12T15:47:43;12.43;;;11.68;;
13733;SDS011;43298;52.560;13.508;2022-11-12T15:50:13;13.90;;;13.30;;
13733;SDS011;43298;52.560;13.508;2022-11-12T15:52:43;14.32;;;13.70;;
13733;SDS011;43298;52.560;13.508;2022-11-12T15:55:12;12.35;;;11.73;;
13733;SDS011;43298;52.560;13.508;2022-11-12T15:57:49;10.20;;;9.65;;
13733;SDS011;43298;52.560;13.508;2022-11-12T16:00:17;9.85;;;9.23;;
13733;SDS011;43298;52.560;13.508;2022-11-12T16:02:56;10.45;;;9.50;;
13733;SDS011;43298;52.560;13.508;2022-11-12T16:07:09;9.20;;;8.75;;
13733;SDS011;43298;52.560;13.508;2022-11-12T16:09:35;9.10;;;8.70;;
13733;SDS011;43298;52.560;13.508;2022-11-12T16:12:02;9.88;;;9.27;;
13733;SDS011;43298;52.560;13.508;2022-11-12T16:14:28;10.15;;;9.60;;
13733;SDS011;43298;52.560;13.508;2022-11-12T16:16:55;10.10;;;9.45;;
13733;SDS011;43298;52.560;13.508;2022-11-12T16:19:21;11.30;;;10.60;;
13733;SDS011;43298;52.560;13.508;2022-11-12T16:21:47;10.85;;;10.15;;
13733;SDS011;43298;52.560;13.508;2022-11-12T16:24:12;9.77;;;9.23;;
13733;SDS011;43298;52.560;13.508;2022-11-12T16:26:38;10.95;;;10.35;;
13733;SDS011;43298;52.560;13.508;2022-11-12T16:29:08;17.42;;;10.60;;
13733;SDS011;43298;52.560;13.508;2022-11-12T16:31:39;12.38;;;11.65;;
13733;SDS011;43298;52.560;13.508;2022-11-12T16:34:07;11.63;;;10.93;;
13733;SDS011;43298;52.560;13.508;2022-11-12T16:36:33;10.05;;;9.55;;
13733;SDS011;43298;52.560;13.508;2022-11-12T16:38:59;12.15;;;11.00;;
13733;SDS011;43298;52.560;13.508;2022-11-12T16:41:24;13.15;;;10.90;;
13733;SDS011;43298;52.560;13.508;2022-11-12T16:43:50;11.43;;;10.68;;
13733;SDS011;43298;52.560;13.508;2022-11-12T16:46:25;10.75;;;10.13;;
13733;SDS011;43298;52.560;13.508;2022-11-12T16:48:54;11.07;;;10.05;;
13733;SDS011;43298;52.560;13.508;2022-11-12T16:51:20;11.57;;;10.75;;
13733;SDS011;43298;52.560;13.508;2022-11-12T16:53:47;11.38;;;10.35;;
13733;SDS011;43298;52.560;13.508;2022-11-12T16:56:15;9.75;;;9.05;;
13733;SDS011;43298;52.560;13.508;2022-11-12T16:58:43;11.38;;;10.68;;
13733;SDS011;43298;52.560;13.508;2022-11-12T17:01:12;10.50;;;9.90;;
13733;SDS011;43298;52.560;13.508;2022-11-12T17:03:54;10.77;;;10.15;;
13733;SDS011;43298;52.560;13.508;2022-11-12T17:06:22;10.63;;;9.70;;
13733;SDS011;43298;52.560;13.508;2022-11-12T17:08:56;10.60;;;9.80;;
13733;SDS011;43298;52.560;13.508;2022-11-12T17:11:22;9.70;;;8.93;;
13733;SDS011;43298;52.560;13.508;2022-11-12T17:13:48;9.23;;;8.68;;
13733;SDS011;43298;52.560;13.508;2022-11-12T17:16:14;13.18;;;9.93;;